Terminal Aerodrome Forecast
Issued by NWS Tulsa, OK

Home | Current Version | Previous Version | Text Only | Print | Product List | Glossary On
Versions: 1 2 3 4 5 6 7 8 9 10 11 12 13 14 15 16 17
000
FTUS44 KTSA 271100
TAFFSM
TAF
KFSM 271139Z 2712/2812 10011G18KT P6SM VCSH BKN100
     FM271500 08014G22KT P6SM BKN090
     FM271900 07014KT P6SM VCSH BKN050 PROB30 2721/2802 5SM -TSRA
      BKN035CB
     FM280200 07011KT 5SM -RA BR BKN035
     FM280800 05007KT 4SM -RA BR BKN015=

USA.gov is the U.S. government's official web portal to all federal, state and local government web resources and services.